Time;durP1;ratioP1;P1;durP2;ratioP2;P2;SDS_P1;SDS_P2;PMS_P1;PMS_P2;Temp;Humidity;BMP_temperature;BMP_pressure;BME280_temperature;BME280_humidity;BME280_pressure;Samples;Min_cycle;Max_cycle;Signal;HPM_P1;HPM_P2
2022/11/19 00:00:33;;;;;;;8.77;6.87;;;;;;;;;;6560418;28;20173;-92
2022/11/19 00:03:44;;;;;;;10.17;7.73;;;;;;;;;;6556271;28;20693;-93
2022/11/19 00:06:54;;;;;;;10.23;7.20;;;;;;;;;;6556704;28;20201;-93
2022/11/19 00:10:05;;;;;;;11.37;8.20;;;;;;;;;;6572232;28;20177;-93
2022/11/19 00:13:15;;;;;;;12.47;8.87;;;;;;;;;;6559415;28;20181;-93
2022/11/19 00:16:26;;;;;;;13.63;8.73;;;;;;;;;;6555411;28;20226;-93
2022/11/19 00:19:36;;;;;;;13.53;9.23;;;;;;;;;;6556357;28;20181;-93
2022/11/19 00:22:49;;;;;;;13.00;9.30;;;;;;;;;;6555798;28;20244;-93
2022/11/19 00:26:05;;;;;;;9.57;7.20;;;;;;;;;;6553039;28;20232;-93
2022/11/19 00:29:16;;;;;;;10.83;7.53;;;;;;;;;;6572769;28;20212;-92
2022/11/19 00:32:26;;;;;;;11.57;8.77;;;;;;;;;;6567770;28;20276;-93
2022/11/19 00:35:37;;;;;;;11.73;8.20;;;;;;;;;;6552009;28;20188;-91
2022/11/19 00:38:47;;;;;;;13.23;9.07;;;;;;;;;;6555269;28;20631;-92
2022/11/19 00:41:57;;;;;;;14.23;9.60;;;;;;;;;;6555667;28;20268;-91
2022/11/19 00:45:08;;;;;;;13.83;8.47;;;;;;;;;;6556262;28;20219;-92
2022/11/19 00:48:19;;;;;;;12.23;9.47;;;;;;;;;;6572307;28;20212;-93
2022/11/19 00:51:30;;;;;;;14.37;9.33;;;;;;;;;;6555648;28;20178;-93
2022/11/19 00:54:40;;;;;;;15.63;9.57;;;;;;;;;;6555546;28;20177;-91
2022/11/19 00:57:51;;;;;;;12.97;8.63;;;;;;;;;;6571720;28;20696;-92
2022/11/19 01:01:04;;;;;;;12.60;8.27;;;;;;;;;;6555781;28;20173;-92
2022/11/19 01:04:15;;;;;;;15.20;10.37;;;;;;;;;;6571747;28;20181;-92
2022/11/19 01:07:27;;;;;;;9.07;6.23;;;;;;;;;;6571313;28;20181;-91
2022/11/19 01:10:41;;;;;;;14.13;9.23;;;;;;;;;;6571855;28;20184;-92
2022/11/19 01:13:51;;;;;;;13.50;9.23;;;;;;;;;;6555521;28;20177;-91
2022/11/19 01:17:02;;;;;;;13.30;9.00;;;;;;;;;;6571224;28;20214;-91
2022/11/19 01:20:12;;;;;;;10.73;6.77;;;;;;;;;;6571123;28;20181;-91
2022/11/19 01:23:22;;;;;;;15.70;10.30;;;;;;;;;;6570711;28;20228;-92
2022/11/19 01:26:33;;;;;;;12.23;8.03;;;;;;;;;;6570354;28;20290;-92
2022/11/19 01:29:44;;;;;;;13.03;9.40;;;;;;;;;;6554578;28;20188;-91
2022/11/19 01:32:54;;;;;;;16.53;10.43;;;;;;;;;;6571761;28;20271;-92
2022/11/19 01:36:09;;;;;;;19.20;11.17;;;;;;;;;;6572821;28;20180;-91
2022/11/19 01:39:19;;;;;;;11.27;8.50;;;;;;;;;;6553802;28;20181;-92
2022/11/19 01:42:49;;;;;;;13.50;9.47;;;;;;;;;;6569910;28;20239;-92
2022/11/19 01:45:59;;;;;;;11.93;8.73;;;;;;;;;;6554726;28;20212;-91
2022/11/19 01:49:11;;;;;;;13.70;9.67;;;;;;;;;;6553787;28;20276;-92
2022/11/19 01:52:22;;;;;;;16.20;11.00;;;;;;;;;;6554614;28;20181;-92
2022/11/19 01:55:34;;;;;;;13.57;9.67;;;;;;;;;;6554116;28;20632;-92
2022/11/19 01:58:46;;;;;;;16.53;10.97;;;;;;;;;;6554565;28;20212;-92
2022/11/19 02:01:57;;;;;;;13.47;9.37;;;;;;;;;;6553434;28;20187;-92
2022/11/19 02:05:07;;;;;;;12.17;9.00;;;;;;;;;;6553860;28;20201;-92
2022/11/19 02:08:36;;;;;;;16.40;10.73;;;;;;;;;;6553200;28;20559;-92
2022/11/19 02:11:55;;;;;;;12.87;9.43;;;;;;;;;;6570462;28;20212;-92
2022/11/19 02:15:21;;;;;;;10.43;7.33;;;;;;;;;;6571500;28;20185;-92
2022/11/19 02:18:41;;;;;;;11.30;8.43;;;;;;;;;;6553849;28;20248;-92
2022/11/19 02:22:03;;;;;;;11.53;8.37;;;;;;;;;;6570239;28;20228;-92
2022/11/19 02:25:20;;;;;;;14.13;9.60;;;;;;;;;;6553257;28;20262;-91
2022/11/19 02:28:50;;;;;;;12.33;8.93;;;;;;;;;;6569841;28;20185;-92
2022/11/19 02:32:16;;;;;;;11.60;8.57;;;;;;;;;;6552829;28;20701;-93
2022/11/19 02:35:36;;;;;;;13.27;8.93;;;;;;;;;;6553445;28;20188;-93
2022/11/19 02:38:50;;;;;;;9.30;6.73;;;;;;;;;;6550288;28;20203;-93
2022/11/19 02:42:07;;;;;;;13.53;9.00;;;;;;;;;;6553311;28;20268;-93
2022/11/19 02:45:31;;;;;;;13.50;8.17;;;;;;;;;;6552430;28;20209;-92
2022/11/19 02:48:44;;;;;;;12.90;8.27;;;;;;;;;;6553559;28;20285;-92
2022/11/19 02:51:56;;;;;;;14.60;9.20;;;;;;;;;;6553180;28;20582;-92
2022/11/19 02:55:07;;;;;;;12.70;8.90;;;;;;;;;;6570260;28;20407;-92
2022/11/19 03:05:20;;;;;;;11.73;8.60;;;;;;;;;;6570644;28;20259;-92
2022/11/19 03:08:31;;;;;;;14.93;9.73;;;;;;;;;;6552785;28;20185;-92
2022/11/19 03:11:44;;;;;;;15.90;10.83;;;;;;;;;;6569023;28;20643;-92
2022/11/19 03:18:55;;;;;;;10.40;8.10;;;;;;;;;;6570108;28;20260;-91
2022/11/19 03:22:08;;;;;;;11.00;7.77;;;;;;;;;;6553069;28;20172;-92
2022/11/19 03:25:25;;;;;;;13.40;9.97;;;;;;;;;;6568251;28;20626;-92
2022/11/19 03:28:36;;;;;;;10.30;7.90;;;;;;;;;;6570661;28;20154;-94
2022/11/19 03:31:50;;;;;;;12.57;8.33;;;;;;;;;;6552489;28;20181;-94
2022/11/19 03:35:03;;;;;;;11.80;8.17;;;;;;;;;;6552374;28;20185;-93
2022/11/19 03:38:15;;;;;;;11.27;8.70;;;;;;;;;;6551923;28;20181;-93
2022/11/19 03:41:26;;;;;;;11.17;8.50;;;;;;;;;;6552564;28;20181;-93
2022/11/19 03:44:46;;;;;;;11.60;8.50;;;;;;;;;;6551833;28;20683;-93
2022/11/19 03:47:58;;;;;;;10.27;8.03;;;;;;;;;;6552195;28;20184;-94
2022/11/19 03:51:12;;;;;;;13.57;8.67;;;;;;;;;;6553085;28;20193;-93
2022/11/19 03:54:23;;;;;;;10.93;8.40;;;;;;;;;;6552120;28;20284;-93
2022/11/19 03:57:36;;;;;;;13.67;9.17;;;;;;;;;;6552121;28;20535;-92
2022/11/19 04:00:47;;;;;;;12.27;7.67;;;;;;;;;;6551956;28;20211;-92
2022/11/19 04:07:26;;;;;;;13.43;9.47;;;;;;;;;;6572671;28;20288;-93
2022/11/19 04:10:36;;;;;;;15.80;10.27;;;;;;;;;;6556542;28;20193;-92
2022/11/19 04:13:47;;;;;;;15.20;9.73;;;;;;;;;;6556646;28;20662;-92
2022/11/19 04:16:59;;;;;;;12.50;8.67;;;;;;;;;;6574469;28;20220;-92
2022/11/19 04:20:09;;;;;;;14.03;9.50;;;;;;;;;;6556540;28;20193;-92
2022/11/19 04:23:20;;;;;;;12.93;9.80;;;;;;;;;;6572461;28;20216;-92
2022/11/19 04:26:31;;;;;;;15.37;10.43;;;;;;;;;;6556007;28;20232;-92
2022/11/19 04:29:42;;;;;;;23.00;13.80;;;;;;;;;;6556192;28;20200;-92
2022/11/19 04:32:52;;;;;;;21.20;13.20;;;;;;;;;;6574209;28;20256;-91
2022/11/19 04:36:03;;;;;;;14.30;9.93;;;;;;;;;;6571922;28;20184;-92
2022/11/19 04:39:13;;;;;;;13.50;9.37;;;;;;;;;;6562128;28;20180;-91
2022/11/19 04:42:23;;;;;;;16.23;11.43;;;;;;;;;;6597599;28;20204;-91
2022/11/19 04:45:33;;;;;;;15.03;10.13;;;;;;;;;;6581291;28;20235;-92
2022/11/19 04:48:44;;;;;;;17.87;11.67;;;;;;;;;;6581398;28;20195;-91
2022/11/19 04:51:54;;;;;;;18.37;12.43;;;;;;;;;;6581676;28;20203;-91
2022/11/19 04:55:04;;;;;;;15.07;10.40;;;;;;;;;;6581227;28;20249;-90
2022/11/19 04:58:15;;;;;;;15.37;10.60;;;;;;;;;;6598795;28;20177;-90
2022/11/19 05:01:25;;;;;;;16.53;10.83;;;;;;;;;;6581398;28;20593;-90
2022/11/19 05:04:37;;;;;;;21.37;13.20;;;;;;;;;;6580852;28;20200;-90
2022/11/19 05:07:47;;;;;;;17.33;11.60;;;;;;;;;;6599253;28;20183;-90
2022/11/19 05:10:57;;;;;;;17.17;10.73;;;;;;;;;;6597891;28;20622;-91
2022/11/19 05:14:08;;;;;;;13.93;9.63;;;;;;;;;;6580685;28;20184;-91
2022/11/19 05:17:18;;;;;;;13.60;9.80;;;;;;;;;;6596588;28;20235;-92
2022/11/19 05:20:30;;;;;;;13.13;9.73;;;;;;;;;;6597889;28;20173;-91
2022/11/19 05:23:41;;;;;;;18.90;11.10;;;;;;;;;;6580641;28;20183;-92
2022/11/19 05:26:52;;;;;;;35.33;15.97;;;;;;;;;;6580534;28;20267;-93
2022/11/19 05:30:03;;;;;;;42.47;20.43;;;;;;;;;;6580050;28;20191;-91
2022/11/19 05:33:13;;;;;;;25.73;14.60;;;;;;;;;;6598590;28;20237;-91
2022/11/19 05:36:23;;;;;;;16.33;11.57;;;;;;;;;;6580840;28;20652;-91
2022/11/19 05:39:34;;;;;;;13.83;9.87;;;;;;;;;;6580185;28;20180;-91
2022/11/19 05:42:46;;;;;;;20.50;12.37;;;;;;;;;;6580021;28;20176;-91
2022/11/19 05:45:58;;;;;;;14.20;9.47;;;;;;;;;;6572143;28;20213;-91
2022/11/19 05:49:08;;;;;;;20.27;12.10;;;;;;;;;;6572799;28;20268;-92
2022/11/19 05:52:21;;;;;;;13.70;9.80;;;;;;;;;;6586860;28;20247;-91
2022/11/19 05:55:32;;;;;;;17.47;11.27;;;;;;;;;;6586975;28;20628;-92
2022/11/19 05:58:42;;;;;;;14.37;9.93;;;;;;;;;;6586282;28;20169;-92
2022/11/19 06:01:52;;;;;;;13.27;9.63;;;;;;;;;;6586543;28;20174;-92
2022/11/19 06:05:03;;;;;;;12.67;8.10;;;;;;;;;;6586353;28;20211;-92
2022/11/19 06:08:14;;;;;;;14.27;9.67;;;;;;;;;;6571473;28;20177;-91
2022/11/19 06:14:54;;;;;;;15.80;10.03;;;;;;;;;;6570504;28;20175;-91
2022/11/19 06:18:05;;;;;;;21.77;13.10;;;;;;;;;;6586303;28;20615;-91
2022/11/19 06:21:16;;;;;;;19.90;12.03;;;;;;;;;;6570385;28;20181;-91
2022/11/19 06:24:26;;;;;;;22.23;13.97;;;;;;;;;;6570999;28;20224;-91
2022/11/19 06:27:36;;;;;;;16.93;11.53;;;;;;;;;;6570056;28;20193;-91
2022/11/19 06:30:47;;;;;;;13.80;9.40;;;;;;;;;;6585391;28;20177;-91
2022/11/19 06:33:57;;;;;;;13.40;9.03;;;;;;;;;;6569341;28;20324;-91
2022/11/19 06:37:07;;;;;;;12.67;9.27;;;;;;;;;;6585693;28;20224;-91
2022/11/19 06:40:17;;;;;;;15.30;10.90;;;;;;;;;;6585750;28;20597;-92
2022/11/19 06:43:28;;;;;;;19.27;13.07;;;;;;;;;;6585679;28;20181;-92
2022/11/19 06:46:38;;;;;;;16.67;11.30;;;;;;;;;;6585571;28;20239;-92
2022/11/19 06:49:49;;;;;;;20.10;12.50;;;;;;;;;;6585136;28;20550;-92
2022/11/19 06:53:00;;;;;;;19.07;12.47;;;;;;;;;;6586882;28;20177;-93
2022/11/19 06:56:11;;;;;;;20.33;12.73;;;;;;;;;;6570844;28;20531;-92
2022/11/19 06:59:21;;;;;;;20.17;12.87;;;;;;;;;;6585388;28;20184;-93
2022/11/19 07:02:31;;;;;;;16.47;11.57;;;;;;;;;;6586059;28;20188;-92
2022/11/19 07:05:43;;;;;;;18.27;11.30;;;;;;;;;;6595638;28;20204;-92
2022/11/19 07:08:55;;;;;;;15.70;10.23;;;;;;;;;;6561962;28;20177;-92
2022/11/19 07:12:06;;;;;;;19.73;12.67;;;;;;;;;;6578395;28;20180;-92
2022/11/19 07:15:16;;;;;;;37.87;20.50;;;;;;;;;;6595083;28;20191;-91
2022/11/19 07:18:26;;;;;;;31.60;17.63;;;;;;;;;;6577901;28;20180;-91
2022/11/19 07:21:38;;;;;;;23.27;14.73;;;;;;;;;;6596464;28;20180;-92
2022/11/19 07:24:49;;;;;;;40.00;19.27;;;;;;;;;;6578225;28;20284;-93
2022/11/19 07:27:59;;;;;;;84.40;31.83;;;;;;;;;;6577583;28;20176;-92
2022/11/19 07:31:11;;;;;;;33.70;18.83;;;;;;;;;;6577849;28;20547;-91
2022/11/19 07:34:21;;;;;;;16.63;11.97;;;;;;;;;;6577549;28;20172;-91
2022/11/19 07:37:31;;;;;;;16.03;11.20;;;;;;;;;;6594465;28;20594;-92
2022/11/19 07:40:42;;;;;;;16.67;11.27;;;;;;;;;;6577981;28;20183;-94
2022/11/19 07:43:52;;;;;;;19.00;13.17;;;;;;;;;;6583227;28;20618;-93
2022/11/19 07:47:02;;;;;;;17.37;10.83;;;;;;;;;;6582747;28;20350;-93
2022/11/19 07:50:13;;;;;;;14.20;10.30;;;;;;;;;;6583013;28;20651;-93
2022/11/19 07:53:23;;;;;;;17.23;11.93;;;;;;;;;;6582972;28;20173;-93
2022/11/19 07:56:34;;;;;;;24.20;15.40;;;;;;;;;;6583189;28;20185;-94
2022/11/19 07:59:44;;;;;;;20.77;13.67;;;;;;;;;;6581240;28;20180;-95
2022/11/19 08:02:54;;;;;;;16.80;11.97;;;;;;;;;;6556528;28;20177;-94
2022/11/19 08:06:06;;;;;;;15.77;10.43;;;;;;;;;;6556265;28;20266;-93
2022/11/19 08:09:16;;;;;;;21.47;13.03;;;;;;;;;;6556260;28;20177;-93
2022/11/19 08:12:29;;;;;;;15.93;10.63;;;;;;;;;;6539967;28;20212;-94
2022/11/19 08:15:41;;;;;;;20.07;13.07;;;;;;;;;;6556468;28;20540;-93
2022/11/19 08:18:51;;;;;;;26.70;14.77;;;;;;;;;;6555766;28;20210;-94
2022/11/19 08:22:01;;;;;;;25.90;15.23;;;;;;;;;;6555417;28;20174;-93
2022/11/19 08:25:12;;;;;;;22.23;13.67;;;;;;;;;;6555394;28;20236;-94
2022/11/19 08:28:24;;;;;;;19.80;13.57;;;;;;;;;;6555413;28;20177;-94
2022/11/19 08:31:34;;;;;;;20.43;12.50;;;;;;;;;;6539874;28;20173;-94
2022/11/19 08:34:44;;;;;;;22.13;13.57;;;;;;;;;;6555173;28;20180;-94
2022/11/19 08:37:55;;;;;;;22.23;13.73;;;;;;;;;;6571728;28;20578;-93
2022/11/19 08:44:35;;;;;;;16.60;11.10;;;;;;;;;;6572950;28;20262;-94
2022/11/19 08:47:47;;;;;;;18.37;11.90;;;;;;;;;;6555764;28;20169;-94
2022/11/19 08:50:58;;;;;;;20.93;13.23;;;;;;;;;;6555701;28;20264;-94
2022/11/19 08:54:08;;;;;;;23.67;14.13;;;;;;;;;;6555672;28;20191;-94
2022/11/19 08:57:19;;;;;;;19.23;12.17;;;;;;;;;;6572679;28;20170;-93
2022/11/19 09:00:30;;;;;;;19.63;12.37;;;;;;;;;;6554938;28;20161;-93
2022/11/19 09:03:41;;;;;;;18.87;12.73;;;;;;;;;;6554132;28;20276;-91
2022/11/19 09:06:51;;;;;;;21.73;12.17;;;;;;;;;;6554260;28;20201;-90
2022/11/19 09:10:02;;;;;;;17.07;10.93;;;;;;;;;;6564831;28;20184;-92
2022/11/19 09:13:13;;;;;;;15.13;12.07;;;;;;;;;;6554598;28;20188;-93
2022/11/19 09:16:24;;;;;;;16.57;11.77;;;;;;;;;;6554655;28;20239;-93
2022/11/19 09:19:35;;;;;;;20.57;12.97;;;;;;;;;;6538427;28;20180;-92
2022/11/19 09:22:45;;;;;;;25.43;16.37;;;;;;;;;;6569892;28;20268;-90
2022/11/19 09:25:57;;;;;;;19.17;13.10;;;;;;;;;;6568606;28;20304;-89
2022/11/19 09:29:07;;;;;;;16.07;11.23;;;;;;;;;;6561460;28;20177;-91
2022/11/19 09:32:18;;;;;;;14.53;10.27;;;;;;;;;;6553884;28;20180;-93
2022/11/19 09:35:29;;;;;;;16.60;11.20;;;;;;;;;;6570078;28;20169;-91
2022/11/19 09:38:39;;;;;;;16.57;11.20;;;;;;;;;;6569680;28;20698;-90
2022/11/19 09:41:50;;;;;;;16.33;10.20;;;;;;;;;;6572099;28;20520;-91
2022/11/19 09:45:03;;;;;;;15.97;10.40;;;;;;;;;;6570718;28;20651;-90
2022/11/19 09:48:18;;;;;;;19.73;11.90;;;;;;;;;;6569153;28;20185;-89
2022/11/19 09:51:30;;;;;;;17.70;12.03;;;;;;;;;;6554226;28;20173;-88
2022/11/19 09:54:45;;;;;;;13.80;10.03;;;;;;;;;;6571822;28;20189;-89
2022/11/19 09:57:56;;;;;;;20.27;12.70;;;;;;;;;;6571402;28;20550;-89
2022/11/19 10:01:11;;;;;;;13.10;9.87;;;;;;;;;;6572397;28;20177;-90
2022/11/19 10:04:22;;;;;;;18.20;12.63;;;;;;;;;;6553364;28;20173;-90
2022/11/19 10:07:43;;;;;;;17.10;11.93;;;;;;;;;;6557583;28;20283;-90
2022/11/19 10:11:12;;;;;;;15.23;9.77;;;;;;;;;;6539687;28;20182;-90
2022/11/19 10:14:26;;;;;;;12.10;8.57;;;;;;;;;;6569981;28;20631;-91
2022/11/19 10:17:54;;;;;;;13.00;8.90;;;;;;;;;;6566069;28;20181;-90
2022/11/19 10:21:21;;;;;;;13.90;10.07;;;;;;;;;;6569452;28;20189;-90
2022/11/19 10:24:31;;;;;;;25.80;15.87;;;;;;;;;;6568166;28;20204;-90
2022/11/19 10:27:49;;;;;;;19.20;12.60;;;;;;;;;;6544160;28;20193;-91
2022/11/19 10:31:07;;;;;;;14.10;9.43;;;;;;;;;;6552338;28;20204;-89
2022/11/19 10:34:24;;;;;;;12.47;9.03;;;;;;;;;;6561856;28;20254;-91
2022/11/19 10:37:39;;;;;;;13.10;8.90;;;;;;;;;;6552714;28;20641;-89
2022/11/19 10:40:54;;;;;;;9.83;8.10;;;;;;;;;;6568309;28;20519;-87
2022/11/19 10:44:41;;;;;;;13.50;9.87;;;;;;;;;;6564300;28;20181;-90
2022/11/19 10:47:56;;;;;;;11.20;8.03;;;;;;;;;;6567067;28;20188;-91
2022/11/19 10:51:22;;;;;;;13.33;9.50;;;;;;;;;;6552323;28;20275;-91
2022/11/19 10:54:35;;;;;;;14.83;9.77;;;;;;;;;;6570198;28;20196;-91
2022/11/19 10:57:49;;;;;;;14.20;10.00;;;;;;;;;;6551662;28;20207;-92
2022/11/19 11:01:02;;;;;;;16.63;9.60;;;;;;;;;;6569759;28;20193;-94
2022/11/19 11:04:16;;;;;;;17.17;11.60;;;;;;;;;;6569126;28;20192;-91
2022/11/19 11:07:47;;;;;;;20.57;12.10;;;;;;;;;;6568675;28;20261;-90
2022/11/19 11:10:58;;;;;;;19.93;12.93;;;;;;;;;;6557513;28;20542;-91
2022/11/19 11:17:41;;;;;;;18.17;11.97;;;;;;;;;;6571418;28;20184;-91
2022/11/19 11:20:53;;;;;;;16.43;11.53;;;;;;;;;;6557928;28;20181;-91
2022/11/19 11:24:03;;;;;;;16.23;10.73;;;;;;;;;;6574553;28;20181;-91
2022/11/19 11:27:21;;;;;;;16.33;10.13;;;;;;;;;;6547141;28;20303;-91
2022/11/19 11:30:33;;;;;;;15.30;10.50;;;;;;;;;;6563782;28;20186;-90
2022/11/19 11:33:55;;;;;;;24.00;16.40;;;;;;;;;;6548135;28;20324;-92
2022/11/19 11:37:07;;;;;;;19.10;12.67;;;;;;;;;;6542682;28;20270;-89
2022/11/19 11:40:19;;;;;;;15.97;10.37;;;;;;;;;;6547875;28;20708;-89
2022/11/19 11:43:30;;;;;;;18.23;12.20;;;;;;;;;;6547365;28;20542;-88
2022/11/19 11:46:43;;;;;;;17.53;11.80;;;;;;;;;;6544912;28;20205;-90
2022/11/19 11:50:02;;;;;;;16.27;10.90;;;;;;;;;;6546971;28;20178;-92
2022/11/19 11:53:13;;;;;;;18.60;12.27;;;;;;;;;;6539641;28;20560;-91
2022/11/19 11:56:23;;;;;;;17.23;11.20;;;;;;;;;;6544638;28;20620;-91
2022/11/19 11:59:34;;;;;;;19.47;11.83;;;;;;;;;;6548611;28;20265;-92
2022/11/19 12:02:57;;;;;;;14.57;10.57;;;;;;;;;;6546825;28;20186;-92
2022/11/19 12:06:11;;;;;;;16.03;10.67;;;;;;;;;;6532331;28;20237;-92
2022/11/19 12:09:30;;;;;;;19.20;13.53;;;;;;;;;;6544321;28;20185;-91
2022/11/19 12:12:49;;;;;;;13.40;10.10;;;;;;;;;;6534230;28;20173;-92
2022/11/19 12:16:02;;;;;;;16.60;10.87;;;;;;;;;;6547271;28;20170;-90
2022/11/19 12:19:28;;;;;;;17.30;11.90;;;;;;;;;;6547763;28;20257;-91
2022/11/19 12:22:58;;;;;;;18.83;13.23;;;;;;;;;;6544187;28;20229;-91
2022/11/19 12:26:14;;;;;;;18.83;12.50;;;;;;;;;;6561235;28;20228;-92
2022/11/19 12:29:30;;;;;;;23.47;14.40;;;;;;;;;;6555305;28;20179;-91
2022/11/19 12:32:49;;;;;;;18.97;12.93;;;;;;;;;;6555139;28;20216;-91
2022/11/19 12:36:17;;;;;;;22.20;14.40;;;;;;;;;;6570729;28;20189;-92
2022/11/19 12:39:39;;;;;;;12.93;8.83;;;;;;;;;;6554553;28;20568;-92
2022/11/19 12:43:05;;;;;;;15.00;10.23;;;;;;;;;;6553390;28;20231;-92
2022/11/19 12:46:34;;;;;;;16.40;11.40;;;;;;;;;;6570281;28;20259;-92
2022/11/19 12:49:44;;;;;;;16.53;10.97;;;;;;;;;;6572212;28;20223;-92
2022/11/19 12:53:11;;;;;;;18.30;11.97;;;;;;;;;;6571221;28;20223;-93
2022/11/19 12:57:00;;;;;;;16.60;12.00;;;;;;;;;;6567429;28;20212;-93
2022/11/19 13:00:13;;;;;;;19.53;12.27;;;;;;;;;;6518085;28;20183;-92
2022/11/19 13:03:42;;;;;;;16.13;11.77;;;;;;;;;;6519983;28;20750;-93
2022/11/19 13:06:57;;;;;;;16.80;10.97;;;;;;;;;;6553799;28;20303;-91
2022/11/19 13:10:16;;;;;;;19.57;12.73;;;;;;;;;;6563077;28;20177;-92
2022/11/19 13:13:28;;;;;;;21.90;12.90;;;;;;;;;;6566609;28;20181;-92
2022/11/19 13:16:40;;;;;;;21.57;13.80;;;;;;;;;;6554366;28;20177;-92
2022/11/19 13:19:53;;;;;;;21.63;12.80;;;;;;;;;;6554282;28;20619;-92
2022/11/19 13:23:05;;;;;;;22.50;14.50;;;;;;;;;;6554320;28;20521;-92
2022/11/19 13:26:15;;;;;;;20.33;12.57;;;;;;;;;;6554354;28;20594;-92
2022/11/19 13:29:45;;;;;;;17.53;11.63;;;;;;;;;;6573517;28;20547;-90
2022/11/19 13:33:08;;;;;;;19.00;12.23;;;;;;;;;;6573063;28;20172;-90
2022/11/19 13:36:24;;;;;;;24.20;14.87;;;;;;;;;;6572561;28;20169;-90
2022/11/19 13:39:38;;;;;;;18.40;11.17;;;;;;;;;;6570660;28;20320;-91
2022/11/19 13:46:41;;;;;;;24.83;16.07;;;;;;;;;;6571489;28;20212;-92
2022/11/19 13:49:53;;;;;;;26.70;14.87;;;;;;;;;;6553436;28;20184;-93
2022/11/19 13:53:06;;;;;;;18.97;12.57;;;;;;;;;;6554161;28;20227;-93
2022/11/19 13:56:20;;;;;;;20.60;13.70;;;;;;;;;;6562180;28;20177;-92
2022/11/19 13:59:36;;;;;;;22.33;13.60;;;;;;;;;;6553649;28;20185;-93
2022/11/19 14:02:56;;;;;;;21.43;13.13;;;;;;;;;;6569134;28;20200;-95
2022/11/19 14:06:25;;;;;;;28.00;15.63;;;;;;;;;;6567128;28;20200;-92
2022/11/19 14:10:00;;;;;;;30.70;17.17;;;;;;;;;;6567853;28;20184;-94
2022/11/19 14:13:22;;;;;;;31.77;15.83;;;;;;;;;;6569881;28;20647;-93
2022/11/19 14:27:29;;;;;;;28.90;16.53;;;;;;;;;;6569286;28;20247;-93
2022/11/19 14:30:58;;;;;;;33.43;18.60;;;;;;;;;;6549995;28;20169;-91
2022/11/19 14:34:23;;;;;;;48.77;25.03;;;;;;;;;;6567064;28;20181;-93
2022/11/19 14:37:38;;;;;;;40.30;19.97;;;;;;;;;;6567915;28;20177;-95
2022/11/19 14:41:00;;;;;;;31.17;17.63;;;;;;;;;;6549237;28;20200;-93
2022/11/19 14:44:26;;;;;;;48.37;23.10;;;;;;;;;;6550926;28;20197;-94
2022/11/19 14:47:36;;;;;;;75.43;37.70;;;;;;;;;;6566413;28;20275;-94
2022/11/19 14:51:00;;;;;;;74.83;40.93;;;;;;;;;;6570177;28;20189;-94
2022/11/19 14:54:14;;;;;;;69.30;38.70;;;;;;;;;;6570849;28;20191;-95
2022/11/19 14:57:30;;;;;;;48.70;29.10;;;;;;;;;;6570193;28;20524;-94
2022/11/19 15:00:42;;;;;;;59.20;33.23;;;;;;;;;;6570902;28;20184;-94
2022/11/19 15:04:02;;;;;;;61.63;38.63;;;;;;;;;;6552331;28;20272;-95
2022/11/19 15:07:24;;;;;;;69.70;40.50;;;;;;;;;;6553480;28;20209;-94
2022/11/19 15:10:45;;;;;;;89.27;46.43;;;;;;;;;;6569462;28;20263;-94
2022/11/19 15:14:14;;;;;;;89.77;48.03;;;;;;;;;;6553239;28;20192;-93
2022/11/19 15:17:25;;;;;;;155.43;59.90;;;;;;;;;;6571116;28;20612;-93
2022/11/19 15:20:48;;;;;;;182.07;71.00;;;;;;;;;;6569215;28;20264;-93
2022/11/19 15:24:17;;;;;;;237.57;83.80;;;;;;;;;;6569504;28;20180;-93
2022/11/19 15:27:30;;;;;;;239.43;88.57;;;;;;;;;;6568956;28;20244;-92
2022/11/19 15:30:59;;;;;;;220.73;81.90;;;;;;;;;;6551709;28;20655;-92
2022/11/19 15:34:13;;;;;;;182.40;73.43;;;;;;;;;;6582781;28;20188;-92
2022/11/19 15:37:28;;;;;;;298.43;97.87;;;;;;;;;;6578778;28;20623;-92
2022/11/19 15:40:43;;;;;;;247.87;95.17;;;;;;;;;;6559860;28;20181;-91
2022/11/19 15:43:56;;;;;;;172.57;71.50;;;;;;;;;;6550570;28;20189;-91
2022/11/19 15:47:17;;;;;;;122.17;55.50;;;;;;;;;;6551623;28;20286;-93
2022/11/19 15:50:27;;;;;;;117.33;55.20;;;;;;;;;;6552494;28;20608;-93
2022/11/19 15:53:55;;;;;;;117.37;53.60;;;;;;;;;;6552248;28;20181;-93
2022/11/19 15:57:25;;;;;;;118.80;55.90;;;;;;;;;;6552655;28;20232;-94
2022/11/19 16:00:43;;;;;;;150.93;65.07;;;;;;;;;;6551911;28;20173;-94
2022/11/19 16:03:54;;;;;;;148.17;65.73;;;;;;;;;;6555639;28;20624;-93
2022/11/19 16:07:06;;;;;;;143.90;60.10;;;;;;;;;;6557055;28;20232;-94
2022/11/19 16:10:33;;;;;;;131.47;57.80;;;;;;;;;;6557386;28;20181;-93
2022/11/19 16:17:35;;;;;;;117.10;52.77;;;;;;;;;;6576894;28;20196;-94
2022/11/19 16:20:47;;;;;;;118.63;54.10;;;;;;;;;;6556104;28;20189;-94
2022/11/19 16:27:39;;;;;;;116.20;51.07;;;;;;;;;;6522038;28;20261;-93
2022/11/19 16:30:58;;;;;;;116.13;54.10;;;;;;;;;;6538910;28;20186;-94
2022/11/19 16:34:23;;;;;;;140.03;58.67;;;;;;;;;;6540051;28;20186;-94
2022/11/19 16:37:33;;;;;;;125.47;57.00;;;;;;;;;;6538551;28;20599;-94
2022/11/19 16:44:22;;;;;;;152.20;68.30;;;;;;;;;;6519201;28;20253;-94
2022/11/19 16:47:32;;;;;;;151.60;64.63;;;;;;;;;;6513096;28;20222;-95
2022/11/19 16:50:43;;;;;;;146.50;65.63;;;;;;;;;;6512674;28;20214;-94
2022/11/19 16:53:53;;;;;;;182.37;76.33;;;;;;;;;;6518485;28;20178;-92
2022/11/19 16:57:05;;;;;;;196.37;81.23;;;;;;;;;;6519096;28;20190;-92
2022/11/19 17:00:19;;;;;;;177.87;75.03;;;;;;;;;;6521466;28;20233;-92
2022/11/19 17:03:34;;;;;;;155.47;64.57;;;;;;;;;;6521448;28;20238;-92
2022/11/19 17:06:44;;;;;;;159.43;63.63;;;;;;;;;;6535835;28;20198;-93
2022/11/19 17:10:13;;;;;;;203.30;89.20;;;;;;;;;;6533697;28;20178;-95
2022/11/19 17:13:29;;;;;;;108.97;50.00;;;;;;;;;;6519231;28;20178;-94
2022/11/19 17:16:43;;;;;;;90.63;41.13;;;;;;;;;;6532446;28;20649;-93
2022/11/19 17:19:58;;;;;;;112.27;50.90;;;;;;;;;;6536310;28;20222;-94
2022/11/19 17:23:17;;;;;;;83.23;39.30;;;;;;;;;;6536814;28;20186;-93
2022/11/19 17:26:28;;;;;;;75.00;38.90;;;;;;;;;;6549448;28;20237;-94
2022/11/19 17:29:43;;;;;;;69.37;32.90;;;;;;;;;;6545641;28;20287;-94
2022/11/19 17:33:02;;;;;;;85.33;38.67;;;;;;;;;;6560360;28;20170;-94
2022/11/19 17:36:14;;;;;;;88.53;41.23;;;;;;;;;;6545500;28;20181;-95
2022/11/19 17:39:25;;;;;;;68.73;31.93;;;;;;;;;;6546259;28;20181;-94
2022/11/19 17:46:04;;;;;;;59.83;27.20;;;;;;;;;;6546137;28;20208;-94
2022/11/19 17:49:14;;;;;;;56.40;26.97;;;;;;;;;;6544997;28;20182;-90
2022/11/19 17:52:26;;;;;;;61.43;28.50;;;;;;;;;;6545800;28;20260;-92
2022/11/19 17:55:37;;;;;;;61.90;29.47;;;;;;;;;;6545400;28;20249;-91
2022/11/19 17:58:48;;;;;;;61.47;30.33;;;;;;;;;;6536153;28;20556;-93
2022/11/19 18:01:58;;;;;;;92.13;38.27;;;;;;;;;;6542751;28;20178;-94
2022/11/19 18:05:17;;;;;;;79.20;36.43;;;;;;;;;;6544245;28;20210;-94
2022/11/19 18:08:28;;;;;;;69.37;31.30;;;;;;;;;;6543603;28;20190;-93
2022/11/19 18:11:38;;;;;;;58.43;27.87;;;;;;;;;;6539929;28;20185;-94
2022/11/19 18:14:49;;;;;;;59.73;30.43;;;;;;;;;;6542091;28;20633;-93
2022/11/19 18:17:59;;;;;;;58.83;26.67;;;;;;;;;;6539806;28;20177;-92
2022/11/19 18:21:13;;;;;;;78.43;34.63;;;;;;;;;;6542817;28;20177;-93
2022/11/19 18:24:24;;;;;;;81.73;36.63;;;;;;;;;;6534002;28;20232;-93
2022/11/19 18:27:34;;;;;;;80.10;32.53;;;;;;;;;;6542529;28;20316;-93
2022/11/19 18:30:45;;;;;;;74.83;33.20;;;;;;;;;;6559023;28;20182;-93
2022/11/19 18:33:55;;;;;;;78.00;36.03;;;;;;;;;;6559618;28;20185;-93
2022/11/19 18:37:05;;;;;;;87.47;34.47;;;;;;;;;;6540635;28;20656;-94
2022/11/19 18:40:16;;;;;;;113.97;42.27;;;;;;;;;;6538554;28;20191;-94
2022/11/19 18:46:55;;;;;;;94.17;36.03;;;;;;;;;;6541162;28;20275;-93
2022/11/19 18:50:06;;;;;;;73.10;31.80;;;;;;;;;;6542920;28;20205;-93
2022/11/19 18:53:16;;;;;;;86.97;33.43;;;;;;;;;;6542649;28;20202;-94
2022/11/19 18:56:28;;;;;;;87.70;37.10;;;;;;;;;;6541487;28;20680;-93
2022/11/19 18:59:40;;;;;;;85.93;36.30;;;;;;;;;;6543637;28;20181;-94
2022/11/19 19:02:50;;;;;;;79.07;32.83;;;;;;;;;;6543262;28;20169;-94
2022/11/19 19:06:01;;;;;;;75.80;32.83;;;;;;;;;;6541973;28;20224;-94
2022/11/19 19:09:18;;;;;;;61.97;27.80;;;;;;;;;;6539090;28;20240;-94
2022/11/19 19:12:29;;;;;;;72.53;31.90;;;;;;;;;;6541033;28;20202;-94
2022/11/19 19:15:39;;;;;;;81.80;35.33;;;;;;;;;;6542185;28;20177;-94
2022/11/19 19:18:49;;;;;;;111.57;38.87;;;;;;;;;;6543731;28;20272;-94
2022/11/19 19:22:00;;;;;;;93.20;34.87;;;;;;;;;;6543445;28;20220;-94
2022/11/19 19:25:10;;;;;;;96.37;37.20;;;;;;;;;;6546989;28;20236;-95
2022/11/19 19:28:21;;;;;;;95.97;38.90;;;;;;;;;;6552067;28;20558;-95
2022/11/19 19:31:33;;;;;;;143.70;50.10;;;;;;;;;;6552943;28;20181;-95
2022/11/19 19:34:45;;;;;;;88.50;36.43;;;;;;;;;;6551338;28;20181;-95
2022/11/19 19:37:56;;;;;;;86.57;36.77;;;;;;;;;;6554813;28;20184;-95
2022/11/19 19:41:12;;;;;;;91.80;37.60;;;;;;;;;;6557914;28;20227;-95
2022/11/19 19:44:23;;;;;;;92.33;36.37;;;;;;;;;;6560080;28;20181;-94
2022/11/19 19:47:33;;;;;;;75.57;33.93;;;;;;;;;;6538322;28;20248;-93